Date,TemperatureHighF,TemperatureAvgF,TemperatureLowF,DewpointHighF,DewpointAvgF,DewpointLowF,HumidityHigh,HumidityAvg,HumidityLow,PressureMaxIn,PressureMinIn,WindSpeedMaxMPH,WindSpeedAvgMPH,GustSpeedMaxMPH,PrecipitationSumIn
2013-2-14,36.1,33.1,31.1,36.0,33.4,31.0,100,100,96,26.04,26.01,5,0,5,0.12
2013-2-15,44.9,35.6,31.1,38.0,33.6,31.0,100,93,73,26.03,25.77,10,1,10,0.01
2013-2-16,34.0,31.0,26.1,35.0,29.5,23.0,100,93,80,25.78,25.62,18,2,18,0.09
2013-2-17,28.9,25.7,20.1,26.0,24.3,18.0,100,93,82,25.69,25.58,9,2,10,0.02
2013-2-18,30.8,25.8,19.3,26.0,22.9,18.0,97,86,71,25.58,25.30,12,1,12,0.02
2013-2-19,33.1,24.9,18.4,26.0,21.9,16.0,97,87,59,25.48,25.26,11,1,11,0.00
2013-2-20,30.8,23.4,15.6,26.0,21.4,16.0,97,90,71,25.53,25.48,10,1,10,0.01
2013-2-21,31.7,26.6,21.7,29.0,25.6,21.0,98,94,85,25.56,25.50,14,1,16,0.04
2013-2-22,33.7,27.7,22.2,33.0,26.7,18.0,99,94,80,25.55,25.26,20,2,20,0.06
2013-2-23,30.4,25.6,21.4,28.0,24.0,18.0,98,92,79,25.80,25.39,16,2,16,0.04
2013-2-24,33.9,27.7,18.9,31.0,25.4,18.0,96,89,80,25.80,25.51,9,1,10,0.07
2013-2-25,30.4,26.8,19.9,29.0,23.9,18.0,99,87,68,25.73,25.44,34,3,34,0.01
2013-2-26,35.9,25.6,17.4,26.0,20.6,14.0,96,81,41,25.78,25.69,13,1,14,0.06
2013-2-27,36.8,28.5,21.2,31.0,25.4,21.0,98,87,64,25.80,25.69,14,1,14,0.09
2013-2-28,36.4,33.1,28.2,36.0,33.2,28.0,100,99,94,25.90,25.74,6,0,6,0.66
2013-3-1,45.2,36.4,30.9,41.0,36.0,31.0,100,97,83,25.94,25.86,8,1,9,0.20
2013-3-2,46.1,33.6,24.4,38.0,32.1,16.0,100,93,46,25.87,25.61,19,2,19,0.00
2013-3-3,29.3,24.8,18.2,24.0,20.7,14.0,95,83,67,25.75,25.62,18,3,18,0.00
2013-3-4,36.3,26.4,16.8,18.0,15.9,14.0,92,64,42,25.73,25.52,18,3,18,0.02
2013-3-5,29.7,28.1,26.8,26.0,21.7,16.0,93,76,57,25.51,25.31,19,4,19,0.00
2013-3-6,36.3,29.6,27.0,32.0,27.3,24.0,100,90,78,25.41,25.18,18,3,18,0.09
2013-3-7,40.7,29.3,24.2,32.0,27.5,23.0,100,91,57,25.60,25.42,11,1,12,0.23
2013-3-8,42.7,27.9,19.9,32.0,24.7,18.0,99,88,50,25.72,25.57,10,1,10,0.02
2013-3-9,43.9,28.0,19.5,29.0,22.9,18.0,98,82,46,25.97,25.73,14,1,15,0.00
2013-3-10,32.9,29.3,24.6,32.0,27.8,23.0,100,92,71,25.95,25.88,7,1,8,0.04
2013-3-11,43.9,33.7,28.4,37.0,32.3,28.0,100,94,63,25.90,25.75,6,0,7,0.09
2013-3-12,42.1,36.5,33.5,40.0,36.5,35.0,100,98,90,25.75,25.68,6,1,6,0.17
2013-3-13,45.0,37.3,32.7,42.0,37.0,33.0,100,98,86,25.79,25.72,8,1,8,0.04
2013-3-14,49.0,41.5,32.4,41.0,33.9,18.0,100,77,33,25.74,25.64,18,2,18,0.00
2013-3-15,41.0,36.1,32.6,39.0,35.8,33.0,100,97,87,25.78,25.70,8,0,9,0.12
2013-3-16,37.2,31.2,23.7,35.0,30.5,23.0,100,97,82,25.70,25.41,19,2,21,0.13
2013-3-17,29.1,24.8,22.7,24.0,22.8,21.0,98,89,71,25.64,25.43,21,4,22,0.00
2013-3-18,35.1,26.3,18.4,26.0,22.9,16.0,96,86,61,25.72,25.60,16,2,18,0.08
2013-3-19,35.0,27.9,18.4,31.0,22.4,14.0,100,80,47,25.70,25.29,23,2,23,0.02
2013-3-20,36.9,31.2,22.3,36.0,29.7,21.0,100,94,57,25.47,25.11,20,3,24,1.17
2013-3-21,29.1,23.7,20.2,24.0,22.0,18.0,98,90,76,25.63,25.46,20,4,20,0.03
2013-3-22,27.6,20.2,13.9,23.0,18.4,11.0,97,90,73,25.77,25.62,14,1,14,0.02
2013-3-23,34.6,22.2,13.7,24.0,17.7,11.0,96,83,52,25.81,25.75,9,1,10,0.07
2013-3-24,36.5,26.8,18.3,24.0,21.4,16.0,96,78,57,25.76,25.68,14,2,14,0.05
2013-3-25,44.6,32.1,24.2,36.0,26.4,21.0,96,77,58,25.68,25.57,14,2,14,0.36
2013-3-26,45.4,36.4,30.2,37.0,32.6,29.0,99,86,62,25.61,25.56,8,1,8,0.15
2013-3-27,40.9,35.7,32.1,38.0,34.7,32.0,100,95,80,25.60,25.53,9,1,9,0.09
2013-3-28,46.4,36.6,31.6,39.0,34.1,31.0,100,90,58,25.73,25.60,9,1,10,0.01
2013-3-29,48.9,36.7,30.4,38.0,33.7,31.0,100,89,60,25.83,25.73,11,1,12,0.00
2013-3-30,59.2,40.5,31.0,37.0,33.6,31.0,100,79,42,25.85,25.75,11,1,11,0.00
2013-3-31,61.7,43.5,35.8,36.0,33.3,29.0,90,70,34,25.74,25.64,12,2,12,0.00
2013-4-1,53.3,41.1,34.2,42.0,36.2,31.0,97,84,57,25.75,25.64,12,2,13,0.00
2013-4-2,47.8,38.6,33.7,41.0,37.2,35.0,100,94,72,25.77,25.73,12,1,12,0.00
2013-4-3,52.0,39.3,30.0,40.0,34.9,31.0,100,86,52,25.75,25.62,8,1,9,0.00
2013-4-4,45.4,41.2,36.4,42.0,36.8,28.0,98,85,51,25.62,25.37,20,2,20,0.72
2013-4-5,46.8,38.5,34.5,40.0,36.2,33.0,100,91,68,25.52,25.41,14,2,15,0.45
2013-4-6,36.2,33.2,31.1,35.0,32.5,29.0,100,97,90,25.51,25.37,12,2,12,0.56
2013-4-7,33.8,31.2,28.2,35.0,30.7,28.0,100,97,91,25.41,25.12,14,1,14,0.15
2013-4-8,38.3,31.5,27.2,35.0,30.9,28.0,100,97,85,25.80,25.42,12,2,12,0.55
2013-4-9,46.5,34.2,25.6,41.0,33.1,26.0,100,95,70,25.87,25.78,7,0,7,0.41
2013-4-10,45.4,36.0,30.0,41.0,33.8,28.0,100,91,67,25.78,25.55,21,2,22,0.37
2013-4-11,39.3,32.2,28.4,33.0,29.6,26.0,100,90,59,25.78,25.70,17,3,17,0.02
2013-4-12,41.4,31.0,25.5,32.0,26.1,16.0,100,83,37,25.70,25.30,14,1,15,0.00
2013-4-13,30.0,26.4,22.9,29.0,24.9,18.0,100,92,82,25.50,25.29,24,2,24,0.01
2013-4-14,33.9,27.6,21.8,29.0,26.0,23.0,99,92,76,25.51,25.46,11,2,11,0.14
2013-4-15,34.6,28.2,24.5,31.0,27.1,24.0,99,94,80,25.67,25.45,10,1,12,0.07
2013-4-16,40.8,28.7,22.1,28.0,25.0,21.0,99,85,51,25.89,25.67,14,1,14,0.34
2013-4-17,40.1,30.6,21.0,32.0,26.2,18.0,100,84,57,25.96,25.87,10,2,10,0.32
2013-4-18,40.3,33.7,29.1,38.0,33.3,29.0,100,98,89,25.93,25.78,13,2,13,0.36
2013-4-19,42.6,36.4,32.1,40.0,35.7,32.0,100,97,87,25.78,25.66,18,2,18,0.51
2013-4-20,39.7,35.5,32.0,36.0,33.8,32.0,100,93,82,25.81,25.73,16,4,17,0.09
2013-4-21,39.4,32.2,28.3,35.0,31.6,28.0,100,96,78,25.84,25.73,15,3,15,0.02
2013-4-22,47.8,33.3,23.8,31.0,25.8,16.0,100,77,36,26.00,25.84,13,1,13,0.08
2013-4-23,49.9,34.8,25.7,29.0,23.5,16.0,92,64,36,25.94,25.83,15,2,15,0.00
2013-4-24,54.4,39.9,29.6,29.0,26.1,21.0,84,61,30,25.89,25.69,14,2,16,0.00
2013-4-25,56.6,42.4,32.4,36.0,32.9,28.0,89,70,45,25.80,25.66,18,3,18,0.00
2013-4-26,61.4,44.7,34.9,35.0,31.7,26.0,94,65,27,25.90,25.80,14,2,15,0.00
2013-4-27,49.6,38.9,33.8,38.0,32.7,28.0,100,80,42,25.86,25.75,16,2,18,0.11
2013-4-28,43.2,37.2,32.0,38.0,34.3,31.0,100,89,66,25.75,25.54,18,3,18,0.07
2013-4-29,36.7,31.9,26.0,35.0,25.8,21.0,100,77,55,25.65,25.48,24,4,28,0.31
2013-4-30,35.8,28.6,24.0,26.0,22.5,18.0,89,75,54,25.91,25.62,17,4,17,0.00
2013-5-1,53.9,35.7,22.6,31.0,23.5,14.0,93,66,22,26.11,25.92,14,2,14,0.00
2013-5-2,61.1,45.0,34.0,37.0,29.8,23.0,89,59,27,26.10,25.96,14,2,14,0.00
2013-5-3,61.4,44.3,33.4,39.0,34.4,29.0,92,71,33,25.96,25.88,14,2,14,0.00
2013-5-4,62.2,47.7,36.5,35.0,30.7,28.0,82,55,28,25.90,25.75,21,3,23,0.00
2013-5-5,66.3,51.2,39.9,33.0,28.4,24.0,72,44,22,25.75,25.61,24,4,24,0.00
2013-5-6,71.3,50.0,39.6,38.0,34.3,31.0,78,58,23,25.64,25.59,15,2,15,0.00
2013-5-7,66.2,49.7,38.9,42.0,37.8,32.0,85,67,39,25.69,25.60,15,3,16,0.00
2013-5-8,66.4,49.8,38.6,44.0,38.4,35.0,89,68,37,25.82,25.70,15,3,15,0.00
2013-5-9,71.6,50.6,38.4,39.0,33.7,26.0,85,57,20,25.86,25.82,13,3,13,0.00
2013-5-10,75.5,52.6,40.2,44.0,35.3,28.0,85,56,21,25.90,25.86,13,2,13,0.00
2013-5-11,73.5,52.3,42.7,47.0,41.3,39.0,88,70,31,25.90,25.78,11,1,12,0.00
2013-5-12,55.3,48.5,43.9,50.5,45.4,40.0,98,89,79,25.79,25.70,12,2,12,0.00
2013-5-13,50.6,41.7,30.8,45.0,38.3,31.0,100,88,61,25.74,25.63,17,2,17,0.38
2013-5-14,46.7,36.7,28.4,37.0,32.6,28.0,100,85,56,25.77,25.72,13,2,13,0.00
2013-5-15,49.5,39.8,32.0,41.0,35.7,31.0,100,87,50,25.74,25.65,9,2,9,0.03
2013-5-16,56.0,43.2,35.0,45.0,39.8,35.0,100,89,46,25.65,25.58,13,1,13,0.01
2013-5-17,42.0,39.9,38.3,41.0,39.4,38.0,100,98,89,25.67,25.59,10,2,10,0.12
2013-5-18,41.0,38.2,35.2,40.0,38.0,35.0,100,99,94,25.84,25.67,12,3,12,0.18
2013-5-19,42.8,39.3,33.8,42.0,38.7,35.0,100,97,88,25.97,25.84,13,3,14,0.14
2013-5-20,63.7,45.7,31.7,46.0,37.2,32.0,100,77,34,25.92,25.55,15,2,15,0.00
2013-5-21,42.8,36.6,31.6,42.0,36.3,32.0,100,98,76,25.55,25.39,16,3,16,0.31
2013-5-22,36.2,31.8,28.5,35.0,31.3,29.0,100,98,90,25.50,25.40,9,2,9,0.38
2013-5-23,39.7,34.8,31.3,37.0,33.5,31.0,100,94,84,25.60,25.50,10,1,10,0.58
2013-5-24,41.8,36.0,32.8,39.0,35.7,33.0,100,98,87,25.66,25.55,9,1,9,0.27
2013-5-25,51.4,40.2,33.6,41.0,36.4,33.0,100,87,59,25.65,25.61,12,2,12,0.00
2013-5-26,51.2,42.5,34.8,45.0,39.8,35.0,100,91,62,25.64,25.58,15,2,15,0.00
2013-5-27,45.1,40.7,37.5,43.0,38.9,35.0,100,93,83,25.61,25.44,14,1,14,0.53
2013-5-28,46.8,41.4,35.5,44.0,39.9,36.0,100,94,74,25.54,25.41,12,2,12,0.06
2013-5-29,44.1,38.9,35.5,42.0,38.3,35.0,100,97,89,25.58,25.34,14,2,14,0.73
2013-5-30,43.0,37.7,33.6,40.0,37.1,35.0,100,97,87,25.83,25.58,12,2,12,0.30
2013-5-31,53.4,42.3,34.5,42.0,38.5,35.0,100,88,65,25.91,25.82,14,3,14,0.02
2013-6-1,57.9,47.0,37.3,46.0,40.9,37.0,100,81,52,25.86,25.71,15,2,15,0.00
2013-6-2,47.0,43.1,38.7,43.0,40.7,38.0,100,92,79,25.75,25.68,12,3,13,0.04
2013-6-3,60.2,47.0,35.0,42.0,38.6,35.0,100,76,42,25.79,25.71,17,3,17,0.00
2013-6-4,72.1,52.6,37.3,48.0,41.0,35.0,96,69,33,25.83,25.77,14,2,15,0.00
2013-6-5,67.3,54.3,43.2,50.5,45.0,41.0,96,74,46,25.80,25.76,17,3,18,0.00
2013-6-6,69.7,54.7,42.1,49.0,43.5,33.0,95,70,31,25.77,25.74,17,2,17,0.00
2013-6-7,59.2,49.5,42.1,50.0,43.6,39.0,94,81,57,25.79,25.73,17,3,17,0.00
2013-6-8,63.7,50.4,37.5,47.0,42.6,36.0,97,77,44,25.80,25.75,15,3,15,0.00
2013-6-9,55.7,47.4,40.2,44.0,40.3,35.0,98,78,55,25.75,25.65,18,4,18,0.00
2013-6-10,56.2,46.0,39.1,42.0,39.1,36.0,99,79,50,25.66,25.58,18,4,18,0.00
2013-6-11,47.7,40.2,35.5,40.0,37.1,35.0,100,89,60,25.71,25.57,20,4,20,0.05
2013-6-12,42.2,37.9,34.3,40.0,37.5,33.0,100,98,92,25.75,25.71,8,2,8,0.15
2013-6-13,46.2,40.8,36.7,41.0,38.9,37.0,100,93,80,25.82,25.73,15,3,17,0.05
2013-6-14,56.4,45.2,37.9,43.0,39.5,38.0,100,83,51,25.83,25.72,14,3,14,0.00
2013-6-15,69.0,52.9,39.8,49.0,41.7,36.0,98,70,31,25.74,25.66,14,2,14,0.00
2013-6-16,64.1,51.7,42.3,53.0,46.9,40.0,100,85,56,25.79,25.73,15,2,15,0.01
2013-6-17,66.5,52.6,41.4,49.0,44.2,39.0,100,77,40,25.78,25.66,13,2,14,0.00
2013-6-18,56.8,47.2,41.3,45.0,41.0,32.0,100,82,39,25.66,25.60,16,3,17,0.18
2013-6-19,47.1,41.8,39.6,42.0,40.4,39.0,100,95,77,25.66,25.56,15,4,15,0.03
2013-6-20,44.8,40.8,38.0,42.0,39.6,37.0,100,95,83,25.72,25.60,19,4,19,0.18
2013-6-21,50.0,44.2,38.1,45.0,41.7,38.0,100,91,76,25.81,25.72,10,2,10,0.00
2013-6-22,66.4,50.7,37.2,50.5,44.2,37.0,100,81,48,25.79,25.63,17,1,17,0.00
2013-6-23,56.7,52.0,48.7,50.5,48.4,47.0,97,88,73,25.63,25.40,11,1,11,0.07
2013-6-24,52.9,47.5,44.1,48.0,45.9,42.0,100,94,70,25.44,25.36,11,2,11,0.17
2013-6-25,55.0,47.5,42.8,47.5,43.6,41.0,100,87,63,25.57,25.43,14,2,14,0.18
2013-6-26,58.9,49.9,42.9,50.0,46.0,42.0,98,87,60,25.79,25.58,14,2,14,0.16
2013-6-27,60.7,52.4,46.4,55.0,50.2,45.0,100,92,76,25.94,25.77,12,1,12,0.13
2013-6-28,79.7,62.6,48.2,61.0,53.9,48.0,100,77,40,25.92,25.87,19,2,19,0.00
2013-6-29,72.4,61.8,53.5,59.0,55.5,52.0,97,81,58,25.88,25.82,16,2,16,0.00
2013-6-30,84.0,66.6,50.6,57.0,52.5,47.5,97,66,32,25.83,25.76,22,2,22,0.00
2013-7-1,89.0,71.4,59.9,59.0,52.3,44.0,85,54,23,25.84,25.76,16,2,17,0.00
2013-7-2,79.2,64.0,52.9,61.0,55.9,51.0,96,77,42,25.86,25.83,14,2,14,0.00
2013-7-3,70.0,58.2,47.9,53.5,49.1,43.0,99,75,40,25.84,25.79,18,3,18,0.00
2013-7-4,59.7,51.9,46.0,49.0,46.7,44.0,100,83,60,25.80,25.71,17,4,18,0.00
2013-7-5,57.2,49.8,45.4,47.0,44.5,42.0,97,83,64,25.71,25.68,19,4,19,0.00
2013-7-6,67.8,55.6,45.6,54.0,47.9,42.0,92,77,56,25.69,25.65,14,2,14,0.00
2013-7-7,67.9,54.7,44.2,54.5,46.9,41.0,96,76,56,25.70,25.64,16,2,18,0.00
2013-7-8,69.0,55.2,43.7,51.0,46.3,43.0,100,76,43,25.85,25.69,16,3,16,0.00
2013-7-9,78.0,60.9,47.0,54.0,46.8,36.0,92,65,23,25.85,25.81,14,2,15,0.00
2013-7-10,67.8,56.4,47.8,53.0,49.1,45.0,96,78,53,25.81,25.68,14,3,14,0.00
2013-7-11,58.7,49.3,41.7,48.0,43.0,40.0,98,81,57,25.71,25.66,17,4,19,0.00
2013-7-12,54.7,46.8,38.1,42.0,39.7,35.0,95,78,52,25.77,25.66,16,2,16,0.00
2013-7-13,65.5,49.9,35.8,47.0,39.7,35.0,100,73,36,25.85,25.77,15,2,15,0.00
2013-7-14,70.7,55.4,43.0,45.0,41.9,37.0,91,65,33,25.83,25.75,15,2,15,0.00
2013-7-15,73.0,57.0,43.5,48.0,42.1,37.0,91,62,32,25.75,25.70,13,2,13,0.00
2013-7-16,81.8,62.3,51.0,55.0,42.5,36.0,73,51,22,25.73,25.65,10,2,10,0.00
2013-7-17,68.9,58.6,51.7,54.0,51.3,47.0,97,78,58,25.90,25.72,9,3,9,0.00
2013-7-18,74.9,57.4,42.9,49.0,39.0,26.0,93,56,19,25.90,25.86,9,2,9,0.00
2013-7-19,77.2,59.4,45.4,49.0,37.0,24.0,75,49,16,25.88,25.82,9,2,9,0.00
2013-7-20,74.5,58.6,46.0,47.0,39.8,31.0,80,55,21,25.82,25.72,9,2,9,0.00
2013-7-21,73.6,58.4,46.1,50.0,45.2,37.0,91,64,39,25.73,25.68,9,2,9,0.00
2013-7-22,73.3,58.2,46.4,48.0,44.5,36.0,96,66,33,25.79,25.68,9,2,9,0.00
2013-7-23,77.9,61.3,47.2,52.0,43.5,32.0,87,57,21,25.83,25.77,9,2,9,0.00
2013-7-24,76.1,60.7,47.9,49.0,42.7,29.0,83,57,19,25.83,25.80,9,2,9,0.00
2013-7-25,76.3,59.7,45.9,47.0,38.1,29.0,79,48,23,25.87,25.80,9,2,9,0.00
2013-7-26,75.5,59.6,46.0,46.0,36.2,24.0,83,45,17,25.90,25.84,9,2,9,0.00
2013-7-27,67.1,54.0,41.7,48.0,42.9,36.0,93,69,46,25.85,25.72,9,2,9,0.00
2013-7-28,63.3,51.5,41.0,47.0,42.4,39.0,96,74,42,25.73,25.68,9,2,9,0.00
2013-7-29,68.0,53.0,42.0,51.0,46.0,41.0,97,80,53,25.75,25.65,9,2,9,0.00
2013-7-30,70.7,56.5,44.7,53.0,47.2,39.0,96,73,52,25.87,25.74,9,2,9,0.00
2013-7-31,73.7,60.0,50.9,53.0,47.2,36.0,89,67,27,25.85,25.76,9,1,9,0.00
2013-8-1,60.7,50.0,42.8,52.0,46.3,40.0,100,88,70,25.77,25.72,15,2,15,0.00
2013-8-2,50.9,47.3,44.9,51.0,47.2,45.0,100,100,98,25.82,25.73,11,2,11,0.03
2013-8-3,60.6,53.6,46.9,57.0,52.4,47.0,100,97,88,25.82,25.78,7,1,7,0.00
2013-8-4,74.5,59.1,49.5,57.0,52.1,49.0,100,81,47,25.79,25.75,16,2,16,0.00
2013-8-5,75.1,60.3,49.2,52.0,47.2,43.0,92,66,34,25.78,25.75,16,3,16,0.00
2013-8-6,76.0,60.1,48.2,48.0,44.4,38.0,85,61,27,25.77,25.74,16,2,16,0.00
2013-8-7,74.3,59.3,47.1,49.0,42.8,35.0,81,57,33,25.79,25.73,17,3,17,0.00
2013-8-8,72.5,59.0,48.8,54.0,48.5,42.0,93,70,46,25.79,25.74,15,2,15,0.00
2013-8-9,76.2,61.4,50.1,57.0,52.6,47.0,98,76,45,25.76,25.67,14,2,14,0.29
2013-8-10,68.5,57.6,51.2,60.0,55.6,51.0,100,94,69,25.79,25.68,10,1,10,0.16
2013-8-11,57.6,54.7,51.5,56.0,53.9,51.0,100,98,88,25.78,25.74,10,2,10,0.00
2013-8-12,66.2,53.8,43.1,54.0,49.9,43.0,100,88,64,25.79,25.73,14,2,14,0.00
2013-8-13,75.6,57.8,43.6,54.0,46.4,29.0,98,72,20,25.81,25.74,14,2,14,0.00
2013-8-14,75.3,60.2,51.3,54.0,48.0,39.0,96,67,30,25.76,25.72,15,2,15,0.01
2013-8-15,66.6,56.8,49.9,57.0,53.9,50.0,100,92,61,25.76,25.71,13,1,14,0.04
2013-8-16,69.5,57.2,44.9,56.0,49.2,40.0,100,78,38,25.79,25.72,12,2,12,0.00
2013-8-17,60.7,54.5,49.3,54.0,51.7,48.0,99,91,79,25.82,25.76,12,2,12,0.00
2013-8-18,67.0,55.0,44.5,54.0,49.8,44.0,100,85,56,25.85,25.80,15,2,15,0.00
2013-8-19,63.5,54.0,44.6,51.0,48.6,44.0,100,84,61,25.83,25.78,14,2,14,0.00
2013-8-20,66.8,54.4,43.5,50.0,45.8,32.0,99,76,41,25.84,25.80,13,3,13,0.00
2013-8-21,78.0,58.4,43.2,53.0,43.2,31.0,85,60,29,25.81,25.76,11,2,11,0.00
2013-8-22,76.7,61.8,51.1,50.0,42.8,35.0,76,53,22,25.77,25.65,14,1,14,0.00
2013-8-23,66.5,55.5,50.6,54.0,50.9,47.0,100,86,58,25.66,25.61,14,2,14,0.00
2013-8-24,59.1,51.7,48.4,50.0,48.9,47.0,100,91,70,25.66,25.60,13,3,13,0.00
2013-8-25,62.0,51.6,43.7,52.0,47.5,43.0,100,88,55,25.66,25.63,13,2,14,0.04
2013-8-26,60.4,52.5,47.6,53.0,47.3,43.0,100,84,58,25.70,25.63,18,1,18,0.05
2013-8-27,66.8,55.4,49.0,56.0,50.5,47.0,100,86,55,25.70,25.61,9,1,9,0.08
2013-8-28,69.3,56.5,49.8,57.0,52.7,49.0,100,89,52,25.70,25.60,12,1,13,0.23
2013-8-29,58.0,54.5,51.8,55.0,51.9,46.0,100,91,70,25.78,25.66,14,2,14,0.54
2013-8-30,58.2,53.4,46.2,53.0,50.9,45.0,100,92,65,25.87,25.76,13,2,14,0.00
2013-8-31,78.4,58.6,43.9,54.0,48.5,44.0,100,74,34,25.82,25.68,15,2,15,0.00
2013-9-1,75.3,61.8,53.5,57.0,51.5,47.0,93,72,36,25.70,25.63,13,2,13,0.00
2013-9-2,67.5,56.3,47.4,54.0,50.6,46.0,98,83,57,25.72,25.65,16,2,16,0.00
2013-9-3,64.9,55.2,47.8,53.0,51.2,47.0,100,88,61,25.78,25.68,12,1,12,0.04
2013-9-4,66.5,54.2,46.0,56.0,49.9,44.0,100,87,55,25.79,25.73,12,2,12,0.00
2013-9-5,54.8,52.2,47.3,54.0,52.0,47.0,100,100,98,25.79,25.65,12,1,12,1.61
2013-9-6,54.2,49.5,46.4,53.0,49.2,46.0,100,99,93,25.83,25.67,8,1,8,0.45
2013-9-7,58.1,49.9,43.0,57.0,49.0,43.0,100,97,82,25.84,25.76,7,0,7,0.01
2013-9-8,67.2,53.0,44.3,57.0,49.6,44.0,100,90,63,25.85,25.78,14,2,14,0.01
2013-9-9,70.8,55.2,46.9,54.0,47.4,41.0,100,79,40,25.82,25.75,14,2,14,0.00
2013-9-10,79.5,60.8,49.0,53.0,48.6,45.0,96,69,32,25.79,25.74,14,2,14,0.00
2013-9-11,83.2,65.0,55.1,53.0,48.6,43.0,80,59,27,25.83,25.78,15,2,15,0.00
2013-9-12,81.0,64.4,55.7,55.0,49.6,43.0,85,62,29,25.82,25.74,14,2,14,0.00
2013-9-13,74.3,60.9,52.3,52.0,48.1,46.0,86,66,40,25.75,25.67,14,2,14,0.00
2013-9-14,82.6,69.7,56.0,53.0,48.1,42.0,81,50,25,25.67,25.61,19,3,19,0.00
2013-9-15,76.5,61.5,50.6,54.0,50.7,47.0,100,71,38,25.62,25.51,14,2,15,0.07
2013-9-16,50.5,48.9,46.8,50.0,48.6,47.0,100,100,96,25.66,25.56,9,2,9,0.34
2013-9-17,46.9,43.9,41.4,47.0,44.0,41.0,100,100,98,25.61,25.53,13,2,13,0.17
2013-9-18,48.4,42.2,36.6,44.0,40.7,37.0,100,95,79,25.76,25.60,14,2,14,0.04
2013-9-19,61.8,48.3,36.5,45.0,39.0,36.0,100,73,44,25.73,25.59,18,2,18,0.00
2013-9-20,66.0,53.1,45.7,47.0,40.1,36.0,93,64,35,25.60,25.39,14,2,14,0.00
2013-9-21,49.3,45.9,42.2,46.0,44.6,41.0,100,95,75,25.45,25.39,11,1,11,0.12
2013-9-22,45.6,41.6,37.6,43.0,40.4,37.0,100,96,83,25.45,25.34,16,2,16,0.49
2013-9-23,46.7,40.7,37.7,44.0,40.3,38.0,100,99,89,25.62,25.45,10,1,10,0.31
2013-9-24,43.6,38.0,31.5,40.0,37.2,32.0,100,97,82,25.60,25.48,9,1,10,0.22
2013-9-25,44.1,37.8,34.0,41.0,37.4,35.0,100,98,89,25.65,25.47,13,2,13,0.13
2013-9-26,47.7,39.3,31.9,40.0,37.1,32.0,100,92,71,25.77,25.64,13,2,13,0.00
2013-9-27,43.6,38.0,30.4,44.0,37.9,31.0,100,99,93,25.76,25.53,6,1,8,0.18
2013-9-28,48.1,43.1,36.5,47.0,42.6,37.0,100,98,93,25.54,25.17,20,2,21,2.63
2013-9-29,40.9,37.3,34.6,40.0,37.1,35.0,100,99,91,25.29,25.05,16,2,17,1.63
2013-9-30,37.4,33.7,31.9,37.0,33.8,32.0,100,100,97,25.56,25.15,15,0,15,1.16
2013-10-1,38.6,33.4,31.0,39.0,33.5,31.0,100,100,95,25.73,25.52,8,0,8,0.40
2013-10-2,42.2,35.1,32.0,39.0,33.8,32.0,100,95,68,25.73,25.64,11,1,11,0.04
2013-10-3,41.1,34.9,30.2,39.0,34.3,31.0,100,97,87,25.99,25.72,9,1,9,0.18
2013-10-4,53.0,37.1,30.7,42.0,34.1,31.0,100,90,48,26.06,25.98,8,1,8,0.00
2013-10-5,63.3,44.7,34.2,47.0,39.8,32.0,100,85,43,25.99,25.85,10,2,10,0.00
2013-10-6,64.7,50.9,40.6,40.0,32.5,24.0,90,54,26,25.86,25.60,20,2,20,0.00
2013-10-7,49.7,39.3,35.7,40.0,35.1,23.0,100,86,33,25.64,25.56,15,2,15,0.23
2013-10-8,37.4,34.2,29.6,37.0,33.6,31.0,100,98,93,25.64,25.55,17,2,18,0.23
2013-10-9,44.1,34.2,28.3,41.0,33.7,28.0,100,97,80,25.70,25.57,9,1,9,0.08
2013-10-10,44.0,36.7,29.6,40.0,35.7,31.0,100,96,75,25.67,25.53,14,2,14,0.04
2013-10-11,41.2,36.8,32.7,39.0,36.5,33.0,100,98,91,25.72,25.66,10,2,10,0.04
2013-10-12,42.6,36.0,32.0,40.0,35.7,32.0,100,99,89,25.79,25.64,8,0,8,0.29
2013-10-13,35.4,35.2,34.6,35.0,35.0,35.0,100,100,100,25.79,25.78,0,0,0,0.00
2013-10-14,53.1,40.7,31.4,38.0,33.8,31.0,100,78,50,26.00,25.95,8,2,8,0.00
2013-10-15,53.6,41.4,34.2,40.0,33.1,28.0,94,73,41,25.86,25.80,7,2,10,0.00
2013-10-16,55.7,41.4,34.8,42.0,37.2,32.0,97,86,53,25.82,25.75,11,1,11,0.00
2013-10-17,55.8,41.8,35.5,43.0,38.0,36.0,100,88,50,25.89,25.81,9,2,10,0.00
2013-10-18,59.9,43.5,36.6,41.0,35.9,32.0,93,76,38,25.89,25.82,8,2,8,0.00
2013-10-19,60.8,45.1,38.4,39.0,34.4,32.0,84,69,35,25.84,25.80,13,2,13,0.00
2013-10-20,64.1,46.7,39.7,39.0,35.9,31.0,82,68,29,25.85,25.81,11,2,11,0.00
2013-10-21,65.9,51.6,43.0,46.0,40.0,37.0,80,66,39,25.86,25.83,10,2,10,0.00
2013-10-22,67.3,49.9,43.3,42.0,37.5,31.0,76,64,25,25.84,25.77,10,2,10,0.00
2013-10-23,64.0,50.3,42.8,42.0,35.5,26.0,76,58,39,25.79,25.75,15,2,15,0.00
2013-10-24,65.8,48.1,42.1,41.0,36.5,31.0,88,66,34,25.78,25.74,10,1,10,0.00
2013-10-25,56.0,43.5,38.3,43.0,36.3,31.0,91,76,53,25.89,25.78,9,1,9,0.00
2013-10-26,56.3,40.7,35.5,35.0,30.5,26.0,83,68,31,25.90,25.77,9,2,9,0.00
2013-10-27,37.7,34.1,31.1,37.0,33.1,28.0,100,95,75,25.79,25.49,15,2,17,0.21
2013-10-28,41.5,35.2,31.4,36.0,26.5,23.0,97,70,48,25.55,25.55,17,3,23,0.00
2013-10-29,43.9,32.9,28.3,31.0,25.7,21.0,97,75,47,25.62,25.55,10,2,10,0.00
2013-10-30,44.6,33.4,27.3,35.0,29.8,26.0,99,87,53,25.73,25.61,14,1,14,0.02
2013-10-31,42.1,38.0,34.5,42.0,38.1,35.0,100,100,98,25.85,25.68,10,1,10,0.23
2013-11-1,49.4,39.0,33.0,44.0,37.4,33.0,100,94,71,25.86,25.53,17,1,17,0.01
2013-11-2,44.6,35.7,29.5,41.0,32.8,24.0,99,88,72,25.54,25.25,34,4,34,1.16
2013-11-3,31.7,28.6,26.1,29.0,27.0,24.0,99,92,80,25.61,25.43,15,3,15,0.00
2013-11-4,33.5,27.7,23.4,33.0,26.9,23.0,100,95,79,25.68,25.60,9,1,10,0.03
2013-11-5,40.6,33.6,29.3,39.0,33.4,29.0,100,99,89,25.78,25.61,9,1,9,0.30
2013-11-6,38.8,33.0,27.3,37.0,32.7,28.0,100,98,88,25.87,25.71,8,1,8,0.23
2013-11-7,39.9,35.6,31.9,40.0,35.3,32.0,100,99,91,25.71,25.38,17,2,17,1.24
2013-11-8,36.2,31.9,28.5,35.0,31.4,29.0,100,97,89,25.72,25.55,13,2,13,0.09
2013-11-9,37.0,32.8,28.0,35.0,31.3,28.0,100,94,80,25.70,25.65,18,2,18,0.06
2013-11-10,48.1,37.8,32.1,46.0,37.6,32.0,100,99,88,25.76,25.66,8,1,8,0.02
2013-11-11,45.6,39.0,35.1,38.0,34.3,32.0,98,83,63,25.79,25.76,18,5,23,0.00
2013-11-12,47.1,41.1,35.0,44.0,39.2,33.0,100,93,62,25.95,25.76,13,1,13,0.54
2013-11-13,40.6,35.9,32.0,39.0,35.7,32.0,100,98,90,25.99,25.85,14,2,14,0.02
2013-11-14,34.4,32.0,29.6,35.0,32.1,31.0,100,99,95,25.86,25.60,12,2,12,0.00
2013-11-15,33.2,29.8,26.2,33.0,29.6,26.0,100,98,92,25.61,24.96,21,2,21,0.01
2013-11-16,32.0,28.6,26.5,32.0,26.6,21.0,100,91,73,25.32,24.95,27,4,27,0.03
2013-11-17,38.2,31.2,27.0,35.0,30.6,24.0,100,96,80,25.49,25.31,19,2,19,0.19
2013-11-18,38.9,34.6,28.8,38.0,34.3,29.0,100,98,94,25.50,25.28,14,2,14,1.23
2013-11-19,37.9,30.7,23.4,38.0,30.6,23.0,100,99,94,25.51,25.26,13,3,13,0.23
2013-11-20,27.1,20.0,15.3,23.0,18.3,14.0,98,91,63,25.87,25.51,10,1,11,0.00
2013-11-21,32.0,22.4,15.7,23.0,17.9,11.0,93,80,63,26.07,25.87,9,1,9,0.00
2013-11-22,39.9,32.1,24.4,26.0,19.0,14.0,85,59,39,26.09,26.01,18,2,18,0.00
2013-11-23,46.7,39.0,34.2,26.0,22.0,18.0,68,49,31,26.02,25.81,15,2,15,0.00
2013-11-24,42.6,36.8,34.3,29.0,25.4,23.0,69,63,55,25.87,25.77,6,2,6,0.00
2013-11-25,44.2,36.3,33.7,31.0,26.9,23.0,77,68,48,25.92,25.85,5,1,5,0.00
2013-11-26,44.2,37.0,33.6,32.0,27.9,18.0,88,70,35,25.79,25.72,6,1,6,0.00
2013-11-27,47.1,39.1,35.0,35.0,28.9,24.0,88,67,41,25.72,25.64,10,2,10,0.00
2013-11-28,46.2,34.9,31.5,33.0,29.2,26.0,87,78,54,25.77,25.74,5,1,5,0.00
2013-11-29,39.2,34.3,31.2,37.0,32.2,28.0,100,92,81,25.85,25.77,9,1,9,0.00
2013-11-30,38.2,34.5,32.1,38.0,34.7,32.0,100,100,99,25.87,25.71,6,0,6,0.23
2013-12-1,39.3,35.1,31.4,39.0,34.9,29.0,100,98,84,25.71,25.31,36,3,36,2.56
2013-12-2,31.4,22.6,18.5,29.0,21.4,18.0,99,93,80,25.50,25.30,26,4,26,0.00
2013-12-3,21.8,18.9,12.8,23.0,15.9,8.0,98,84,65,25.68,25.49,9,2,9,0.00
2013-12-4,20.1,13.2,8.1,14.0,10.8,4.0,92,85,72,25.70,25.65,8,1,8,0.00
2013-12-5,19.6,11.0,6.7,14.0,8.1,4.0,92,84,56,25.66,25.56,13,2,13,0.00
2013-12-6,8.5,6.4,3.6,4.0,2.8,0.0,81,76,72,25.57,25.48,16,4,16,0.00
2013-12-7,12.8,3.9,0.6,4.0,0.6,-6.0,89,77,58,25.68,25.50,11,2,11,0.00
2013-12-8,20.1,10.7,2.8,16.0,6.8,0.0,95,81,47,25.87,25.66,9,1,9,0.00
2013-12-9,21.1,15.9,8.9,21.0,15.5,11.0,98,94,91,25.87,25.82,14,1,14,0.00
2013-12-10,27.5,22.5,15.9,26.0,22.3,16.0,99,96,90,25.89,25.82,11,1,11,0.00
2013-12-11,35.3,28.4,20.4,32.0,27.1,21.0,99,93,80,25.84,25.73,10,2,11,0.00
2013-12-12,40.4,32.5,29.4,32.0,28.8,23.0,100,86,51,25.74,25.61,19,1,20,0.03
2013-12-13,40.8,33.1,31.2,38.0,33.0,31.0,100,99,86,25.97,25.69,8,0,8,0.25
2013-12-14,38.6,32.9,30.6,37.0,32.9,31.0,100,99,90,25.95,25.86,8,1,8,0.11
2013-12-15,38.2,33.7,30.8,38.0,33.8,31.0,100,99,96,25.94,25.86,11,1,11,0.20
2013-12-16,38.0,32.4,28.1,35.0,31.7,28.0,100,97,86,25.99,25.84,9,1,9,0.04
2013-12-17,38.9,33.1,29.4,33.0,31.1,28.0,100,91,73,25.84,25.63,10,1,10,0.01
2013-12-18,33.9,28.0,21.0,33.0,26.9,18.0,100,93,68,25.64,25.49,15,4,16,0.01
2013-12-19,25.9,18.7,14.5,21.0,16.9,11.0,98,90,70,25.74,25.57,11,1,11,0.00
2013-12-20,37.6,27.8,15.8,37.0,27.3,14.0,100,96,89,25.41,25.27,22,2,23,0.64
2013-12-21,32.8,31.6,30.6,33.0,31.6,31.0,100,100,100,25.70,25.41,9,2,9,0.08
2013-12-22,33.8,32.4,30.7,35.0,32.5,31.0,100,100,100,25.86,25.69,6,0,6,0.13
2013-12-23,35.6,32.1,25.9,36.0,31.0,24.0,100,95,80,25.95,25.68,28,2,28,0.52
2013-12-24,30.7,24.4,20.2,29.0,23.7,21.0,100,93,81,26.04,25.95,8,1,8,0.00
2013-12-25,39.6,31.5,26.0,33.0,27.6,23.0,95,84,71,25.98,25.92,8,1,8,0.06
2013-12-26,39.4,33.4,31.2,35.0,31.0,28.0,96,90,76,25.93,25.80,8,1,8,0.02
2013-12-27,43.4,34.7,30.6,37.0,30.8,26.0,100,85,63,25.87,25.71,16,2,17,0.12
2013-12-28,33.4,27.0,24.1,31.0,26.5,23.0,100,96,86,25.98,25.86,6,0,6,0.01
2013-12-29,36.8,31.6,25.3,35.0,29.2,23.0,100,89,75,25.95,25.84,11,1,11,0.00
2013-12-30,40.2,35.3,32.3,39.0,35.4,32.0,100,99,90,25.86,25.71,13,1,13,0.19
2013-12-31,34.0,31.5,28.4,35.0,31.8,28.0,100,100,100,25.87,25.71,11,1,11,0.13
2014-1-1,35.5,31.5,27.4,35.0,31.1,28.0,100,97,91,25.92,25.84,5,1,5,0.00
2014-1-2,44.6,36.4,31.8,39.0,35.1,32.0,100,95,73,25.84,25.47,20,1,24,0.14